createdAt,value
2023-10-13T00:01:04.254Z,45.90
2023-10-13T00:06:03.505Z,45.79
2023-10-13T00:11:00.841Z,45.93
2023-10-13T00:16:00.436Z,45.62
2023-10-13T00:20:57.300Z,46.21
2023-10-13T00:26:00.265Z,46.49
2023-10-13T00:31:01.483Z,46.65
2023-10-13T00:35:58.778Z,46.85
2023-10-13T00:40:56.089Z,46.94
2023-10-13T00:45:57.588Z,46.72
2023-10-13T00:50:57.092Z,46.64
2023-10-13T00:55:56.229Z,46.15
2023-10-13T01:00:57.518Z,46.51
2023-10-13T01:05:56.176Z,46.99
2023-10-13T01:10:54.089Z,47.14
2023-10-13T01:15:50.803Z,47.17
2023-10-13T01:20:52.775Z,47.32
2023-10-13T01:25:50.194Z,47.80
2023-10-13T01:30:50.386Z,48.01
2023-10-13T01:35:48.096Z,47.37
2023-10-13T01:40:44.689Z,47.54
2023-10-13T01:45:47.710Z,48.03
2023-10-13T01:50:48.074Z,47.79
2023-10-13T01:55:44.970Z,48.14
2023-10-13T02:00:43.489Z,48.64
2023-10-13T02:05:40.410Z,48.33
2023-10-13T02:10:43.699Z,48.74
2023-10-13T02:15:43.142Z,48.19
2023-10-13T02:20:46.331Z,48.08
2023-10-13T02:25:46.469Z,48.58
2023-10-13T02:30:45.328Z,48.70
2023-10-13T02:35:43.588Z,49.44
2023-10-13T02:40:40.165Z,49.74
2023-10-13T02:45:37.484Z,49.01
2023-10-13T02:50:34.069Z,49.15
2023-10-13T02:55:32.504Z,49.24
2023-10-13T03:00:32.354Z,49.40
2023-10-13T03:05:35.991Z,49.70
2023-10-13T03:10:33.541Z,50.38
2023-10-13T03:15:31.989Z,50.42
2023-10-13T03:20:32.035Z,50.31
2023-10-13T03:25:42.916Z,50.07
2023-10-13T03:30:42.333Z,50.80
2023-10-13T03:35:41.200Z,50.55
2023-10-13T03:40:38.568Z,51.73
2023-10-13T03:45:40.160Z,51.47
2023-10-13T03:50:46.447Z,52.13
2023-10-13T03:55:48.532Z,52.15
2023-10-13T04:00:45.277Z,52.10
2023-10-13T04:05:46.667Z,53.10
2023-10-13T04:11:01.362Z,53.28
2023-10-13T04:16:15.369Z,52.95
2023-10-13T04:21:32.904Z,52.62
2023-10-13T04:26:49.441Z,52.98
2023-10-13T04:31:56.646Z,52.89
2023-10-13T04:37:11.584Z,53.57
2023-10-13T04:42:27.105Z,53.40
2023-10-13T04:47:23.781Z,53.18
2023-10-13T04:52:51.443Z,53.81
2023-10-13T04:57:50.610Z,53.65
2023-10-13T05:03:23.277Z,54.11
2023-10-13T05:08:40.909Z,53.29
2023-10-13T05:13:57.163Z,53.01
2023-10-13T05:19:11.806Z,54.66
2023-10-13T05:24:27.432Z,54.57
2023-10-13T05:29:41.838Z,53.81
2023-10-13T05:34:58.725Z,53.53
2023-10-13T05:40:17.386Z,53.65
2023-10-13T05:45:54.602Z,53.25
2023-10-13T05:51:11.172Z,53.10
2023-10-13T05:56:26.818Z,53.36
2023-10-13T06:01:41.777Z,52.76
2023-10-13T06:06:59.646Z,52.26
2023-10-13T06:12:17.211Z,51.82
2023-10-13T06:17:31.976Z,51.34
2023-10-13T06:22:46.795Z,51.51
2023-10-13T06:28:02.330Z,52.93
2023-10-13T06:32:59.064Z,53.20
2023-10-13T06:38:00.712Z,51.37
2023-10-13T06:43:12.297Z,50.13
2023-10-13T06:48:12.992Z,49.84
2023-10-13T06:53:12.858Z,49.97
2023-10-13T06:58:14.043Z,51.61
2023-10-13T07:03:18.232Z,52.84
2023-10-13T07:08:20.106Z,52.33
2023-10-13T07:13:17.790Z,52.52
2023-10-13T07:18:17.117Z,51.48
2023-10-13T07:23:30.988Z,50.16
2023-10-13T07:28:32.138Z,49.59
2023-10-13T07:33:31.741Z,49.94
2023-10-13T07:38:31.505Z,49.10
2023-10-13T07:43:35.544Z,49.15
2023-10-13T07:48:39.313Z,49.90
2023-10-13T07:53:39.766Z,49.31
2023-10-13T07:59:05.536Z,50.07
2023-10-13T08:04:18.165Z,50.21
2023-10-13T08:09:31.012Z,49.62
2023-10-13T08:14:39.113Z,50.01
2023-10-13T08:19:45.230Z,48.93
2023-10-13T08:24:59.722Z,47.52
2023-10-13T08:30:20.950Z,47.37
2023-10-13T08:35:36.884Z,46.57
2023-10-13T08:41:00.186Z,46.02
2023-10-13T08:46:56.780Z,46.29
2023-10-13T08:53:17.753Z,45.76
2023-10-13T09:04:56.484Z,45.41
2023-10-13T09:10:35.645Z,44.65
2023-10-13T09:16:25.654Z,44.54
2023-10-13T09:21:55.857Z,44.06
2023-10-13T09:27:06.380Z,44.08
2023-10-13T09:32:24.551Z,44.06
2023-10-13T09:37:30.965Z,43.87
2023-10-13T09:42:29.380Z,44.59
2023-10-13T09:47:35.192Z,44.48
2023-10-13T09:52:46.461Z,44.42
2023-10-13T09:58:01.189Z,45.23
2023-10-13T10:03:15.627Z,45.32
2023-10-13T10:08:59.049Z,45.22
2023-10-13T10:14:13.916Z,44.66
2023-10-13T10:19:17.646Z,44.33
2023-10-13T10:30:15.895Z,42.97
2023-10-13T10:35:30.603Z,42.25
2023-10-13T10:40:44.796Z,42.26
2023-10-13T10:46:00.192Z,41.68
2023-10-13T10:51:15.933Z,41.53
2023-10-13T10:56:37.299Z,41.12
2023-10-13T11:01:59.854Z,41.70
2023-10-13T11:07:00.520Z,41.22
2023-10-13T11:12:15.480Z,41.15
2023-10-13T11:17:25.158Z,40.13
2023-10-13T11:22:54.292Z,40.80
2023-10-13T11:33:32.479Z,40.08
2023-10-13T11:38:45.243Z,40.08
2023-10-13T11:44:20.013Z,40.11
2023-10-13T11:49:33.066Z,39.86
2023-10-13T11:54:34.875Z,39.35
2023-10-13T11:59:41.442Z,39.44
2023-10-13T12:04:49.578Z,39.06
2023-10-13T12:10:22.247Z,42.12
2023-10-13T12:15:41.922Z,40.61
2023-10-13T12:20:58.138Z,39.82
2023-10-13T12:26:00.443Z,39.17
2023-10-13T12:31:06.271Z,39.46
2023-10-13T12:36:23.101Z,41.60
2023-10-13T12:41:57.294Z,45.06
2023-10-13T12:47:24.971Z,45.16
2023-10-13T12:52:28.453Z,45.13
2023-10-13T12:57:33.424Z,43.38
2023-10-13T13:02:51.774Z,41.79
2023-10-13T13:07:55.388Z,40.05
2023-10-13T13:13:07.768Z,40.49
2023-10-13T13:18:16.041Z,39.97
2023-10-13T13:23:20.915Z,41.90
2023-10-13T13:28:18.816Z,41.91
2023-10-13T13:33:35.791Z,41.68
2023-10-13T13:38:41.850Z,42.93
2023-10-13T13:43:46.119Z,41.00
2023-10-13T13:48:59.900Z,40.63
2023-10-13T13:54:02.119Z,41.51
2023-10-13T13:59:10.409Z,41.48
2023-10-13T14:04:23.987Z,41.96
2023-10-13T14:09:43.874Z,42.19
2023-10-13T14:14:51.871Z,42.41
2023-10-13T14:20:00.060Z,42.68
2023-10-13T14:25:09.362Z,41.80
2023-10-13T14:30:10.419Z,41.65
2023-10-13T14:35:24.639Z,42.14
2023-10-13T14:40:23.205Z,41.82
2023-10-13T14:45:23.293Z,41.41
2023-10-13T14:50:25.268Z,41.00
2023-10-13T14:55:40.151Z,41.39
2023-10-13T15:00:37.218Z,42.14
2023-10-13T15:05:36.242Z,42.33
2023-10-13T15:10:33.965Z,42.13
2023-10-13T15:15:32.820Z,42.78
2023-10-13T15:20:29.699Z,43.17
2023-10-13T15:25:29.550Z,43.42
2023-10-13T15:30:31.578Z,43.57
2023-10-13T15:35:35.049Z,44.41
2023-10-13T15:40:31.905Z,44.51
2023-10-13T15:45:41.154Z,42.84
2023-10-13T15:50:42.046Z,41.54
2023-10-13T15:55:39.449Z,41.57
2023-10-13T16:00:37.760Z,41.99
2023-10-13T16:05:35.228Z,41.23
2023-10-13T16:10:32.124Z,40.94
2023-10-13T16:15:29.000Z,42.39
2023-10-13T16:20:28.357Z,41.56
2023-10-13T16:25:25.325Z,41.97
2023-10-13T16:30:22.267Z,42.83
2023-10-13T16:35:20.921Z,42.67
2023-10-13T16:40:19.204Z,43.06
2023-10-13T16:45:21.225Z,41.58
2023-10-13T16:50:18.353Z,41.95
2023-10-13T16:55:18.180Z,43.36
2023-10-13T17:00:16.265Z,43.92
2023-10-13T17:05:14.778Z,43.96
2023-10-13T17:10:14.649Z,43.62
2023-10-13T17:15:19.801Z,41.88
2023-10-13T17:20:18.417Z,42.97
2023-10-13T17:25:16.480Z,44.17
2023-10-13T17:30:13.345Z,42.58
2023-10-13T17:35:12.415Z,42.27
2023-10-13T17:40:16.200Z,42.36
2023-10-13T17:45:14.367Z,44.23
2023-10-13T17:50:14.056Z,43.75
2023-10-13T17:55:11.463Z,43.62
2023-10-13T18:00:14.561Z,42.36
2023-10-13T18:05:11.752Z,42.92
2023-10-13T18:10:10.413Z,43.92
2023-10-13T18:15:10.009Z,44.16
2023-10-13T18:20:10.718Z,44.46
2023-10-13T18:25:12.589Z,45.11
2023-10-13T18:30:16.159Z,45.91
2023-10-13T18:35:12.980Z,47.05
2023-10-13T18:40:12.545Z,48.04
2023-10-13T18:45:13.147Z,49.58
2023-10-13T18:50:11.553Z,50.88
2023-10-13T18:55:08.716Z,51.20
2023-10-13T19:00:15.039Z,50.67
2023-10-13T19:05:12.510Z,50.18
2023-10-13T19:10:15.378Z,49.63
2023-10-13T19:15:13.494Z,49.57
2023-10-13T19:20:16.563Z,49.82
2023-10-13T19:25:14.183Z,49.92
2023-10-13T19:30:11.110Z,50.66
2023-10-13T19:35:08.243Z,50.85
2023-10-13T19:40:09.352Z,52.31
2023-10-13T19:45:13.008Z,53.05
2023-10-13T19:50:13.410Z,54.20
2023-10-13T19:55:16.186Z,53.42
2023-10-13T20:00:22.687Z,53.00
2023-10-13T20:05:20.825Z,53.58
2023-10-13T20:10:17.492Z,53.96
2023-10-13T20:15:15.535Z,53.90
2023-10-13T20:20:16.912Z,55.07
2023-10-13T20:25:15.276Z,56.28
2023-10-13T20:30:12.642Z,55.33
2023-10-13T20:35:09.328Z,55.35
2023-10-13T20:40:18.585Z,55.21
2023-10-13T20:45:18.170Z,54.56
2023-10-13T20:50:15.273Z,53.92
2023-10-13T20:55:17.222Z,52.76
2023-10-13T21:00:21.351Z,51.77
2023-10-13T21:05:21.753Z,50.73
2023-10-13T21:10:19.339Z,49.99
2023-10-13T21:15:17.509Z,49.47
2023-10-13T21:20:15.079Z,49.03
2023-10-13T21:25:19.805Z,49.17
2023-10-13T21:30:20.389Z,48.95
2023-10-13T21:35:17.746Z,48.90
2023-10-13T21:40:19.952Z,49.04
2023-10-13T21:45:17.275Z,49.52
2023-10-13T21:50:17.131Z,50.99
2023-10-13T21:55:16.988Z,52.25
2023-10-13T22:00:32.981Z,53.58
2023-10-13T22:05:31.174Z,56.06
2023-10-13T22:10:27.795Z,56.29
2023-10-13T22:15:28.507Z,55.01
2023-10-13T22:20:25.174Z,55.13
2023-10-13T22:25:22.562Z,54.83
2023-10-13T22:30:19.492Z,53.93
2023-10-13T22:35:18.972Z,52.49
2023-10-13T22:40:17.363Z,53.37
2023-10-13T22:45:18.604Z,52.43
2023-10-13T22:50:18.564Z,52.05
2023-10-13T22:55:21.122Z,51.83
2023-10-13T23:00:19.028Z,51.26
2023-10-13T23:05:50.968Z,50.95
2023-10-13T23:10:47.535Z,50.81
2023-10-13T23:15:45.097Z,50.77
2023-10-13T23:20:43.070Z,50.10
2023-10-13T23:25:40.238Z,49.62
2023-10-13T23:30:37.554Z,49.63
2023-10-13T23:35:34.967Z,50.09
2023-10-13T23:40:33.833Z,50.17
2023-10-13T23:45:41.517Z,50.25
2023-10-13T23:50:50.116Z,50.78
2023-10-13T23:55:47.307Z,51.06
